Meteo Giornale » Osservazioni meteo Colombia » Cucuta-Camilo Daza
ore: 02:00 - Osservazioni Meteo Cucuta-Camilo Daza
Lat. 7° 56' N Lon. 72° 31' W Alt. 250 metri s.l.m.
29 °C
Sereno
Temp. 24 Ore
28 °C
36 °C
Sud
24 Km/h
Dew point 20 °C
Umidità 58 %
Visibilità 10 Km
Il sole sorge alle ore 05:42
Il sole tramonta alle ore 17:58
| Data e Ora | Cielo e Fenomeni | T °C | DP °C | Um. % | Pres. hPa | Vis. km | Vento km/h | |
|---|---|---|---|---|---|---|---|---|
| Oggi h: 02:00 | Sereno | 29 | 20 | 58 | 1013 | 10 | S 24 | |
| Oggi h: 01:00 | Sereno | 29 | 20 | 58 | 1014 | 10 | S/SO 18.5 | |
| Oggi h: 00:00 | Nuvoloso | 29 | 21 | 62 | 1014 | 10 | S 18.5 | |
| Ieri h: 23:00 | Nuvoloso | 29 | 21 | 62 | 1014 | 10 | S 13 | |
| Ieri h: 22:00 | Nuvoloso | 29 | 22 | 66 | 1014 | 10 | S 11.1 | |
| Ieri h: 21:00 | Nuvoloso | 30 | 21 | 58 | 1014 | 10 | S 16.7 | |
| Ieri h: 20:00 | Nuvoloso | 30 | 21 | 58 | 1013 | 10 | S 13 | |
| Ieri h: 19:00 | Temporale nelle vicinanze | 30 | 21 | 58 | 1012 | 10 | S 14.8 | |
| Ieri h: 18:00 | Molto Nuvoloso | 31 | 23 | 62 | 1011 | 3 | N 11.1 | |
| Ieri h: 17:00 | Nuvoloso | 36 | 18 | 34 | 1010 | 10 | SE 11.1 | |
| Ieri h: 16:00 | Nuvoloso | 36 | 17 | 32 | 1010 | 10 | E/SE 18.5 | |
| Ieri h: 15:00 | Nuvoloso | 36 | 18 | 34 | 1010 | 10 | S/SE 22.2 | |
| Ieri h: 14:00 | Nuvoloso | 36 | 18 | 34 | 1011 | 10 | S/SE 33.3 | |
| Ieri h: 13:00 | Nuvoloso | 36 | 18 | 34 | 1012 | 10 | S/SE 33.3 | |
| Ieri h: 12:00 | Nuvoloso | 34 | 17 | 36 | 1013 | 10 | S/SE 37 | |
| Ieri h: 11:00 | Poco Nuvoloso | 35 | 17 | 34 | 1013 | 10 | S/SE 37 | |
| Ieri h: 10:00 | Poco Nuvoloso | 34 | 17 | 36 | 1013 | 10 | S/SE 29.6 | |
| Ieri h: 09:00 | Poco Nuvoloso | 33 | 18 | 41 | 1013 | 10 | S/SE 31.5 | |
| Ieri h: 08:00 | Poco Nuvoloso | 30 | 19 | 51 | 1013 | 10 | S 31.5 | |
| Ieri h: 07:00 | Poco Nuvoloso | 29 | 19 | 54 | 1012 | 10 | S 29.6 | |
| Ieri h: 06:00 | Poco Nuvoloso | 29 | 19 | 54 | 1012 | 10 | S 25.9 | |
| Ieri h: 05:30 | Nuvoloso | 28 | 19 | 58 | 1011 | 10 | S 25.9 | |
| Ieri h: 05:00 | Nuvoloso | 28 | 19 | 58 | 1011 | 10 | S 24 | |
| Ieri h: 04:00 | Sereno | 29 | 19 | 54 | 1011 | 10 | S 31.5 | |
| Ieri h: 03:00 | Sereno | 28 | 19 | 58 | 1011 | 10 | S 29.6 | |



